sensor_id;sensor_type;location;lat;lon;timestamp;pressure;altitude;pressure_sealevel;temperature;humidity
59110;BME280;44895;47.438;18.978;2023-03-03T00:01:41;100326.28;;;3.02;100.00
59110;BME280;44895;47.438;18.978;2023-03-03T00:04:45;100317.94;;;2.87;100.00
59110;BME280;44895;47.438;18.978;2023-03-03T00:07:48;100319.38;;;3.18;100.00
59110;BME280;44895;47.438;18.978;2023-03-03T00:10:52;100328.78;;;2.80;100.00
59110;BME280;44895;47.438;18.978;2023-03-03T00:13:57;100319.47;;;2.71;100.00
59110;BME280;44895;47.438;18.978;2023-03-03T00:17:01;100313.88;;;2.60;100.00
59110;BME280;44895;47.438;18.978;2023-03-03T00:23:38;100313.31;;;2.58;100.00
59110;BME280;44895;47.438;18.978;2023-03-03T00:26:46;100306.69;;;2.37;100.00
59110;BME280;44895;47.438;18.978;2023-03-03T00:30:00;100309.00;;;2.57;100.00
59110;BME280;44895;47.438;18.978;2023-03-03T00:33:06;100315.28;;;2.39;100.00
59110;BME280;44895;47.438;18.978;2023-03-03T00:36:23;100302.25;;;2.55;100.00
59110;BME280;44895;47.438;18.978;2023-03-03T00:39:37;100313.31;;;2.47;100.00
59110;BME280;44895;47.438;18.978;2023-03-03T00:42:42;100302.47;;;2.41;100.00
59110;BME280;44895;47.438;18.978;2023-03-03T00:45:52;100303.75;;;2.39;100.00
59110;BME280;44895;47.438;18.978;2023-03-03T00:48:55;100307.13;;;2.46;100.00
59110;BME280;44895;47.438;18.978;2023-03-03T00:51:59;100305.03;;;2.48;100.00
59110;BME280;44895;47.438;18.978;2023-03-03T00:55:04;100304.44;;;2.22;100.00
59110;BME280;44895;47.438;18.978;2023-03-03T00:58:08;100304.78;;;2.38;100.00
59110;BME280;44895;47.438;18.978;2023-03-03T01:01:17;100301.16;;;2.68;100.00
59110;BME280;44895;47.438;18.978;2023-03-03T01:04:24;100299.44;;;2.50;100.00
59110;BME280;44895;47.438;18.978;2023-03-03T01:07:28;100288.34;;;2.34;100.00
59110;BME280;44895;47.438;18.978;2023-03-03T01:10:33;100290.34;;;2.39;100.00
59110;BME280;44895;47.438;18.978;2023-03-03T01:13:39;100287.44;;;2.40;100.00
59110;BME280;44895;47.438;18.978;2023-03-03T01:16:44;100283.84;;;2.35;100.00
59110;BME280;44895;47.438;18.978;2023-03-03T01:19:47;100284.50;;;2.54;100.00
59110;BME280;44895;47.438;18.978;2023-03-03T01:22:51;100283.09;;;2.63;100.00
59110;BME280;44895;47.438;18.978;2023-03-03T01:25:55;100275.59;;;2.77;100.00
59110;BME280;44895;47.438;18.978;2023-03-03T01:28:59;100271.38;;;2.81;100.00
59110;BME280;44895;47.438;18.978;2023-03-03T01:32:02;100270.59;;;2.81;100.00
59110;BME280;44895;47.438;18.978;2023-03-03T01:35:06;100264.50;;;2.85;100.00
59110;BME280;44895;47.438;18.978;2023-03-03T01:38:10;100265.66;;;2.89;100.00
59110;BME280;44895;47.438;18.978;2023-03-03T01:41:13;100266.38;;;3.14;100.00
59110;BME280;44895;47.438;18.978;2023-03-03T01:44:17;100260.97;;;2.97;100.00
59110;BME280;44895;47.438;18.978;2023-03-03T01:47:21;100260.56;;;2.76;100.00
59110;BME280;44895;47.438;18.978;2023-03-03T01:50:37;100263.09;;;3.23;100.00
59110;BME280;44895;47.438;18.978;2023-03-03T01:53:47;100256.25;;;3.33;100.00
59110;BME280;44895;47.438;18.978;2023-03-03T01:56:52;100258.69;;;3.34;100.00
59110;BME280;44895;47.438;18.978;2023-03-03T01:59:58;100259.00;;;3.21;100.00
59110;BME280;44895;47.438;18.978;2023-03-03T02:03:03;100254.63;;;3.32;100.00
59110;BME280;44895;47.438;18.978;2023-03-03T02:06:08;100262.50;;;3.21;100.00
59110;BME280;44895;47.438;18.978;2023-03-03T02:12:53;100258.59;;;3.29;100.00
59110;BME280;44895;47.438;18.978;2023-03-03T02:15:58;100249.94;;;3.56;100.00
59110;BME280;44895;47.438;18.978;2023-03-03T02:19:04;100248.84;;;3.69;100.00
59110;BME280;44895;47.438;18.978;2023-03-03T02:22:10;100259.25;;;3.65;100.00
59110;BME280;44895;47.438;18.978;2023-03-03T02:25:16;100255.19;;;3.63;100.00
59110;BME280;44895;47.438;18.978;2023-03-03T02:28:25;100247.53;;;3.25;100.00
59110;BME280;44895;47.438;18.978;2023-03-03T02:31:30;100249.34;;;3.37;100.00
59110;BME280;44895;47.438;18.978;2023-03-03T02:34:47;100254.41;;;3.33;100.00
59110;BME280;44895;47.438;18.978;2023-03-03T02:37:50;100244.44;;;3.63;100.00
59110;BME280;44895;47.438;18.978;2023-03-03T02:44:03;100240.84;;;3.74;100.00
59110;BME280;44895;47.438;18.978;2023-03-03T02:47:08;100232.94;;;3.84;100.00
59110;BME280;44895;47.438;18.978;2023-03-03T02:50:12;100236.13;;;3.81;100.00
59110;BME280;44895;47.438;18.978;2023-03-03T02:53:15;100234.66;;;3.73;100.00
59110;BME280;44895;47.438;18.978;2023-03-03T02:56:18;100227.19;;;3.75;100.00
59110;BME280;44895;47.438;18.978;2023-03-03T02:59:22;100229.94;;;3.81;100.00
59110;BME280;44895;47.438;18.978;2023-03-03T03:02:27;100226.66;;;3.79;100.00
59110;BME280;44895;47.438;18.978;2023-03-03T03:05:32;100224.97;;;3.55;100.00
59110;BME280;44895;47.438;18.978;2023-03-03T03:08:35;100232.84;;;3.45;100.00
59110;BME280;44895;47.438;18.978;2023-03-03T03:11:39;100224.22;;;3.43;100.00
59110;BME280;44895;47.438;18.978;2023-03-03T03:14:45;100216.53;;;3.64;100.00
59110;BME280;44895;47.438;18.978;2023-03-03T03:17:48;100219.34;;;3.57;100.00
59110;BME280;44895;47.438;18.978;2023-03-03T03:20:52;100210.31;;;3.80;100.00
59110;BME280;44895;47.438;18.978;2023-03-03T03:23:56;100211.69;;;4.00;100.00
59110;BME280;44895;47.438;18.978;2023-03-03T03:27:00;100211.34;;;3.96;100.00
59110;BME280;44895;47.438;18.978;2023-03-03T03:30:05;100207.88;;;3.79;100.00
59110;BME280;44895;47.438;18.978;2023-03-03T03:33:09;100204.28;;;3.90;100.00
59110;BME280;44895;47.438;18.978;2023-03-03T03:36:12;100202.06;;;4.04;100.00
59110;BME280;44895;47.438;18.978;2023-03-03T03:39:17;100203.22;;;4.08;100.00
59110;BME280;44895;47.438;18.978;2023-03-03T03:42:23;100195.41;;;3.89;100.00
59110;BME280;44895;47.438;18.978;2023-03-03T03:45:26;100197.84;;;3.57;100.00
59110;BME280;44895;47.438;18.978;2023-03-03T03:48:30;100197.59;;;3.92;100.00
59110;BME280;44895;47.438;18.978;2023-03-03T03:51:35;100196.53;;;3.94;100.00
59110;BME280;44895;47.438;18.978;2023-03-03T03:54:40;100188.16;;;3.90;100.00
59110;BME280;44895;47.438;18.978;2023-03-03T03:57:44;100193.31;;;3.91;100.00
59110;BME280;44895;47.438;18.978;2023-03-03T04:00:48;100192.56;;;3.79;100.00
59110;BME280;44895;47.438;18.978;2023-03-03T04:03:52;100188.50;;;3.77;100.00
59110;BME280;44895;47.438;18.978;2023-03-03T04:06:59;100186.63;;;3.94;100.00
59110;BME280;44895;47.438;18.978;2023-03-03T04:10:03;100186.63;;;3.77;100.00
59110;BME280;44895;47.438;18.978;2023-03-03T04:13:06;100183.09;;;3.94;100.00
59110;BME280;44895;47.438;18.978;2023-03-03T04:16:11;100186.44;;;4.01;100.00
59110;BME280;44895;47.438;18.978;2023-03-03T04:19:17;100181.06;;;4.01;100.00
59110;BME280;44895;47.438;18.978;2023-03-03T04:22:21;100184.28;;;4.20;100.00
59110;BME280;44895;47.438;18.978;2023-03-03T04:25:25;100182.84;;;4.12;100.00
59110;BME280;44895;47.438;18.978;2023-03-03T04:28:30;100176.25;;;4.03;100.00
59110;BME280;44895;47.438;18.978;2023-03-03T04:31:35;100179.22;;;3.84;100.00
59110;BME280;44895;47.438;18.978;2023-03-03T04:34:40;100181.25;;;3.94;100.00
59110;BME280;44895;47.438;18.978;2023-03-03T04:37:43;100178.09;;;4.19;100.00
59110;BME280;44895;47.438;18.978;2023-03-03T04:40:48;100183.16;;;3.99;100.00
59110;BME280;44895;47.438;18.978;2023-03-03T04:43:54;100182.28;;;3.93;100.00
59110;BME280;44895;47.438;18.978;2023-03-03T04:46:57;100173.44;;;3.75;100.00
59110;BME280;44895;47.438;18.978;2023-03-03T04:50:01;100176.59;;;3.89;100.00
59110;BME280;44895;47.438;18.978;2023-03-03T04:53:08;100175.03;;;3.94;100.00
59110;BME280;44895;47.438;18.978;2023-03-03T04:56:12;100176.63;;;4.12;100.00
59110;BME280;44895;47.438;18.978;2023-03-03T04:59:16;100176.22;;;4.20;100.00
59110;BME280;44895;47.438;18.978;2023-03-03T05:02:20;100174.91;;;4.22;100.00
59110;BME280;44895;47.438;18.978;2023-03-03T05:05:24;100178.44;;;4.06;100.00
59110;BME280;44895;47.438;18.978;2023-03-03T05:08:28;100183.31;;;4.09;100.00
59110;BME280;44895;47.438;18.978;2023-03-03T05:11:31;100186.63;;;3.94;100.00
59110;BME280;44895;47.438;18.978;2023-03-03T05:14:35;100181.31;;;3.99;100.00
59110;BME280;44895;47.438;18.978;2023-03-03T05:17:38;100185.13;;;4.25;100.00
59110;BME280;44895;47.438;18.978;2023-03-03T05:20:42;100189.69;;;4.03;100.00
59110;BME280;44895;47.438;18.978;2023-03-03T05:23:46;100188.53;;;3.99;100.00
59110;BME280;44895;47.438;18.978;2023-03-03T05:26:49;100173.25;;;3.99;100.00
59110;BME280;44895;47.438;18.978;2023-03-03T05:29:53;100183.94;;;4.16;100.00
59110;BME280;44895;47.438;18.978;2023-03-03T05:32:57;100178.22;;;4.30;100.00
59110;BME280;44895;47.438;18.978;2023-03-03T05:36:01;100190.41;;;4.37;100.00
59110;BME280;44895;47.438;18.978;2023-03-03T05:39:05;100187.34;;;4.51;100.00
59110;BME280;44895;47.438;18.978;2023-03-03T05:42:08;100189.88;;;4.57;100.00
59110;BME280;44895;47.438;18.978;2023-03-03T05:45:13;100188.16;;;4.51;100.00
59110;BME280;44895;47.438;18.978;2023-03-03T05:48:17;100192.66;;;4.68;100.00
59110;BME280;44895;47.438;18.978;2023-03-03T05:51:21;100186.97;;;4.64;100.00
59110;BME280;44895;47.438;18.978;2023-03-03T05:54:24;100197.09;;;4.57;100.00
59110;BME280;44895;47.438;18.978;2023-03-03T05:57:28;100198.41;;;4.54;100.00
59110;BME280;44895;47.438;18.978;2023-03-03T06:00:32;100202.06;;;4.65;100.00
59110;BME280;44895;47.438;18.978;2023-03-03T06:03:35;100196.00;;;4.75;100.00
59110;BME280;44895;47.438;18.978;2023-03-03T06:06:39;100198.69;;;4.75;100.00
59110;BME280;44895;47.438;18.978;2023-03-03T06:09:42;100200.00;;;5.00;100.00
59110;BME280;44895;47.438;18.978;2023-03-03T06:12:46;100201.28;;;4.92;100.00
59110;BME280;44895;47.438;18.978;2023-03-03T06:15:50;100203.53;;;5.00;100.00
59110;BME280;44895;47.438;18.978;2023-03-03T06:18:53;100193.31;;;5.02;100.00
59110;BME280;44895;47.438;18.978;2023-03-03T06:21:57;100199.91;;;5.17;100.00
59110;BME280;44895;47.438;18.978;2023-03-03T06:25:01;100201.16;;;5.36;100.00
59110;BME280;44895;47.438;18.978;2023-03-03T06:28:04;100200.56;;;5.62;100.00
59110;BME280;44895;47.438;18.978;2023-03-03T06:31:08;100207.31;;;5.64;100.00
59110;BME280;44895;47.438;18.978;2023-03-03T06:34:11;100212.06;;;5.52;100.00
59110;BME280;44895;47.438;18.978;2023-03-03T06:37:15;100217.19;;;5.53;100.00
59110;BME280;44895;47.438;18.978;2023-03-03T06:40:19;100215.59;;;5.52;100.00
59110;BME280;44895;47.438;18.978;2023-03-03T06:43:23;100215.66;;;5.63;100.00
59110;BME280;44895;47.438;18.978;2023-03-03T06:46:26;100207.69;;;5.46;100.00
59110;BME280;44895;47.438;18.978;2023-03-03T06:49:30;100217.19;;;5.53;100.00
59110;BME280;44895;47.438;18.978;2023-03-03T06:52:34;100216.69;;;5.57;100.00
59110;BME280;44895;47.438;18.978;2023-03-03T06:55:37;100214.03;;;5.62;100.00
59110;BME280;44895;47.438;18.978;2023-03-03T06:58:41;100229.09;;;5.58;100.00
59110;BME280;44895;47.438;18.978;2023-03-03T07:01:45;100219.88;;;5.86;100.00
59110;BME280;44895;47.438;18.978;2023-03-03T07:04:49;100230.38;;;5.82;100.00
59110;BME280;44895;47.438;18.978;2023-03-03T07:07:54;100235.84;;;5.98;100.00
59110;BME280;44895;47.438;18.978;2023-03-03T07:11:00;100237.66;;;6.19;100.00
59110;BME280;44895;47.438;18.978;2023-03-03T07:14:04;100236.41;;;6.32;100.00
59110;BME280;44895;47.438;18.978;2023-03-03T07:17:14;100241.56;;;6.44;100.00
59110;BME280;44895;47.438;18.978;2023-03-03T07:20:22;100238.59;;;6.46;100.00
59110;BME280;44895;47.438;18.978;2023-03-03T07:23:27;100246.34;;;6.32;100.00
59110;BME280;44895;47.438;18.978;2023-03-03T07:26:34;100243.78;;;6.52;100.00
59110;BME280;44895;47.438;18.978;2023-03-03T07:29:37;100250.31;;;6.67;100.00
59110;BME280;44895;47.438;18.978;2023-03-03T07:32:44;100244.19;;;6.82;100.00
59110;BME280;44895;47.438;18.978;2023-03-03T07:35:48;100255.81;;;6.98;100.00
59110;BME280;44895;47.438;18.978;2023-03-03T07:38:52;100249.91;;;7.06;100.00
59110;BME280;44895;47.438;18.978;2023-03-03T07:42:39;100253.69;;;7.05;100.00
59110;BME280;44895;47.438;18.978;2023-03-03T07:45:30;100250.47;;;7.08;100.00
59110;BME280;44895;47.438;18.978;2023-03-03T07:48:37;100258.31;;;7.10;100.00
59110;BME280;44895;47.438;18.978;2023-03-03T07:51:43;100261.31;;;7.18;100.00
59110;BME280;44895;47.438;18.978;2023-03-03T07:54:47;100258.59;;;7.24;100.00
59110;BME280;44895;47.438;18.978;2023-03-03T07:57:50;100250.25;;;7.35;100.00
59110;BME280;44895;47.438;18.978;2023-03-03T08:04:28;100261.06;;;7.41;100.00
59110;BME280;44895;47.438;18.978;2023-03-03T08:07:34;100259.19;;;7.46;100.00
59110;BME280;44895;47.438;18.978;2023-03-03T08:13:41;100251.88;;;7.52;100.00
59110;BME280;44895;47.438;18.978;2023-03-03T08:16:45;100255.16;;;7.70;100.00
59110;BME280;44895;47.438;18.978;2023-03-03T08:19:52;100251.91;;;7.88;100.00
59110;BME280;44895;47.438;18.978;2023-03-03T08:22:56;100251.91;;;7.78;100.00
59110;BME280;44895;47.438;18.978;2023-03-03T08:25:59;100249.19;;;7.93;100.00
59110;BME280;44895;47.438;18.978;2023-03-03T08:29:03;100240.25;;;7.93;100.00
59110;BME280;44895;47.438;18.978;2023-03-03T08:32:07;100247.56;;;7.92;100.00
59110;BME280;44895;47.438;18.978;2023-03-03T08:35:10;100251.91;;;7.73;100.00
59110;BME280;44895;47.438;18.978;2023-03-03T08:38:15;100254.91;;;7.87;100.00
59110;BME280;44895;47.438;18.978;2023-03-03T08:41:19;100248.91;;;8.05;100.00
59110;BME280;44895;47.438;18.978;2023-03-03T08:44:22;100243.75;;;8.09;100.00
59110;BME280;44895;47.438;18.978;2023-03-03T08:47:26;100242.34;;;8.37;100.00
59110;BME280;44895;47.438;18.978;2023-03-03T08:50:30;100244.22;;;8.52;100.00
59110;BME280;44895;47.438;18.978;2023-03-03T08:53:33;100247.25;;;8.30;100.00
59110;BME280;44895;47.438;18.978;2023-03-03T08:56:38;100248.34;;;8.29;100.00
59110;BME280;44895;47.438;18.978;2023-03-03T08:59:42;100248.84;;;8.41;100.00
59110;BME280;44895;47.438;18.978;2023-03-03T09:02:46;100249.97;;;8.30;100.00
59110;BME280;44895;47.438;18.978;2023-03-03T09:05:49;100244.53;;;8.35;100.00
59110;BME280;44895;47.438;18.978;2023-03-03T09:08:53;100248.28;;;8.55;100.00
59110;BME280;44895;47.438;18.978;2023-03-03T09:11:58;100237.38;;;8.70;100.00
59110;BME280;44895;47.438;18.978;2023-03-03T09:15:07;100240.84;;;8.86;100.00
59110;BME280;44895;47.438;18.978;2023-03-03T09:18:18;100233.28;;;8.83;100.00
59110;BME280;44895;47.438;18.978;2023-03-03T09:21:24;100242.19;;;8.89;100.00
59110;BME280;44895;47.438;18.978;2023-03-03T09:24:29;100236.75;;;8.94;100.00
59110;BME280;44895;47.438;18.978;2023-03-03T09:27:34;100231.59;;;8.97;100.00
59110;BME280;44895;47.438;18.978;2023-03-03T09:30:39;100228.25;;;9.16;100.00
59110;BME280;44895;47.438;18.978;2023-03-03T09:33:46;100235.41;;;9.41;100.00
59110;BME280;44895;47.438;18.978;2023-03-03T09:36:52;100232.97;;;9.74;100.00
59110;BME280;44895;47.438;18.978;2023-03-03T09:39:56;100240.03;;;9.75;100.00
59110;BME280;44895;47.438;18.978;2023-03-03T09:56:16;100236.84;;;10.51;100.00
59110;BME280;44895;47.438;18.978;2023-03-03T10:02:46;100231.72;;;10.20;100.00
59110;BME280;44895;47.438;18.978;2023-03-03T10:05:57;100216.94;;;10.80;100.00
59110;BME280;44895;47.438;18.978;2023-03-03T10:12:26;100228.22;;;11.12;100.00
59110;BME280;44895;47.438;18.978;2023-03-03T10:22:23;100213.91;;;11.58;100.00
59110;BME280;44895;47.438;18.978;2023-03-03T10:25:24;100212.78;;;11.78;100.00
59110;BME280;44895;47.438;18.978;2023-03-03T10:44:52;100192.50;;;12.17;100.00
59110;BME280;44895;47.438;18.978;2023-03-03T10:48:03;100194.28;;;11.61;100.00
59110;BME280;44895;47.438;18.978;2023-03-03T10:51:16;100191.81;;;11.79;100.00
59110;BME280;44895;47.438;18.978;2023-03-03T10:54:38;100185.59;;;11.92;100.00
59110;BME280;44895;47.438;18.978;2023-03-03T11:01:05;100177.59;;;12.15;100.00
59110;BME280;44895;47.438;18.978;2023-03-03T11:14:12;100183.88;;;11.49;100.00
59110;BME280;44895;47.438;18.978;2023-03-03T11:17:20;100165.34;;;11.65;100.00
59110;BME280;44895;47.438;18.978;2023-03-03T11:20:37;100165.13;;;11.95;100.00
59110;BME280;44895;47.438;18.978;2023-03-03T11:39:22;100124.06;;;12.97;100.00
59110;BME280;44895;47.438;18.978;2023-03-03T11:42:41;100128.97;;;13.09;100.00
59110;BME280;44895;47.438;18.978;2023-03-03T11:45:52;100120.13;;;13.03;100.00
59110;BME280;44895;47.438;18.978;2023-03-03T11:49:03;100120.72;;;13.00;100.00
59110;BME280;44895;47.438;18.978;2023-03-03T11:55:32;100116.16;;;12.87;100.00
59110;BME280;44895;47.438;18.978;2023-03-03T11:58:41;100116.59;;;12.66;100.00
59110;BME280;44895;47.438;18.978;2023-03-03T12:01:55;100117.47;;;12.25;100.00
59110;BME280;44895;47.438;18.978;2023-03-03T12:05:08;100118.19;;;11.56;100.00
59110;BME280;44895;47.438;18.978;2023-03-03T12:08:17;100117.91;;;11.57;100.00
59110;BME280;44895;47.438;18.978;2023-03-03T12:18:19;100097.91;;;12.09;100.00
59110;BME280;44895;47.438;18.978;2023-03-03T12:21:33;100094.25;;;12.42;100.00
59110;BME280;44895;47.438;18.978;2023-03-03T12:28:16;100091.00;;;12.53;93.90
59110;BME280;44895;47.438;18.978;2023-03-03T12:31:24;100075.22;;;13.10;90.84
59110;BME280;44895;47.438;18.978;2023-03-03T12:34:50;100084.28;;;12.96;85.95
59110;BME280;44895;47.438;18.978;2023-03-03T12:42:05;100081.75;;;13.23;88.07
59110;BME280;44895;47.438;18.978;2023-03-03T12:54:48;100075.94;;;13.38;81.61
59110;BME280;44895;47.438;18.978;2023-03-03T13:07:30;100067.06;;;13.64;79.13
59110;BME280;44895;47.438;18.978;2023-03-03T13:10:49;100058.75;;;13.37;75.48
59110;BME280;44895;47.438;18.978;2023-03-03T13:14:09;100053.19;;;13.51;75.17
59110;BME280;44895;47.438;18.978;2023-03-03T13:20:50;100045.69;;;13.57;74.19
59110;BME280;44895;47.438;18.978;2023-03-03T13:27:07;100047.81;;;13.69;75.87
59110;BME280;44895;47.438;18.978;2023-03-03T13:30:20;100037.91;;;13.82;77.89
59110;BME280;44895;47.438;18.978;2023-03-03T13:36:40;100048.63;;;13.69;76.92
59110;BME280;44895;47.438;18.978;2023-03-03T13:40:02;100033.91;;;13.88;76.38
59110;BME280;44895;47.438;18.978;2023-03-03T13:43:09;100028.28;;;13.84;74.34
59110;BME280;44895;47.438;18.978;2023-03-03T13:46:17;100037.13;;;13.90;72.80
59110;BME280;44895;47.438;18.978;2023-03-03T14:03:02;100031.97;;;13.17;79.50
59110;BME280;44895;47.438;18.978;2023-03-03T14:06:13;100024.69;;;13.03;78.95
59110;BME280;44895;47.438;18.978;2023-03-03T14:19:01;100017.97;;;12.78;74.62
59110;BME280;44895;47.438;18.978;2023-03-03T14:22:11;100019.66;;;12.74;73.38
59110;BME280;44895;47.438;18.978;2023-03-03T14:25:17;100010.81;;;12.91;75.61
59110;BME280;44895;47.438;18.978;2023-03-03T14:28:22;100003.44;;;12.92;73.35
59110;BME280;44895;47.438;18.978;2023-03-03T14:31:29;100008.78;;;12.74;74.32
59110;BME280;44895;47.438;18.978;2023-03-03T14:34:40;100008.91;;;12.69;76.57
59110;BME280;44895;47.438;18.978;2023-03-03T14:37:45;100006.09;;;12.83;74.50
59110;BME280;44895;47.438;18.978;2023-03-03T14:40:49;99999.50;;;12.75;75.99
59110;BME280;44895;47.438;18.978;2023-03-03T14:47:27;99989.63;;;12.65;76.99
59110;BME280;44895;47.438;18.978;2023-03-03T14:50:32;99991.50;;;12.56;76.33
59110;BME280;44895;47.438;18.978;2023-03-03T14:53:37;99993.47;;;12.42;76.14
59110;BME280;44895;47.438;18.978;2023-03-03T14:56:53;99998.03;;;12.32;75.18
59110;BME280;44895;47.438;18.978;2023-03-03T14:59:58;100004.34;;;12.19;75.19
59110;BME280;44895;47.438;18.978;2023-03-03T15:03:25;100013.84;;;12.07;74.62
59110;BME280;44895;47.438;18.978;2023-03-03T15:06:27;100001.34;;;12.06;79.28
59110;BME280;44895;47.438;18.978;2023-03-03T15:12:40;99999.31;;;11.84;82.02
59110;BME280;44895;47.438;18.978;2023-03-03T15:15:49;100002.75;;;11.62;79.14
59110;BME280;44895;47.438;18.978;2023-03-03T15:37:46;100027.97;;;11.21;77.62
59110;BME280;44895;47.438;18.978;2023-03-03T15:40:56;100026.44;;;11.01;77.45
59110;BME280;44895;47.438;18.978;2023-03-03T15:51:14;100043.63;;;10.96;82.39
59110;BME280;44895;47.438;18.978;2023-03-03T15:56:56;100035.88;;;10.51;84.92
59110;BME280;44895;47.438;18.978;2023-03-03T16:03:32;100039.13;;;10.53;85.24
59110;BME280;44895;47.438;18.978;2023-03-03T16:09:49;100049.25;;;10.28;83.49
59110;BME280;44895;47.438;18.978;2023-03-03T16:25:41;100060.94;;;9.81;89.41
59110;BME280;44895;47.438;18.978;2023-03-03T16:29:00;100067.59;;;9.40;93.77
59110;BME280;44895;47.438;18.978;2023-03-03T16:35:22;100071.59;;;9.18;96.39
59110;BME280;44895;47.438;18.978;2023-03-03T16:38:36;100068.88;;;8.84;100.00
59110;BME280;44895;47.438;18.978;2023-03-03T16:41:53;100089.22;;;8.81;100.00
59110;BME280;44895;47.438;18.978;2023-03-03T16:48:33;100083.75;;;8.46;100.00
59110;BME280;44895;47.438;18.978;2023-03-03T16:54:56;100087.00;;;8.38;100.00
59110;BME280;44895;47.438;18.978;2023-03-03T16:58:15;100097.97;;;8.07;100.00
59110;BME280;44895;47.438;18.978;2023-03-03T17:05:01;100108.13;;;7.55;100.00
59110;BME280;44895;47.438;18.978;2023-03-03T17:11:34;100107.03;;;7.30;100.00
59110;BME280;44895;47.438;18.978;2023-03-03T17:14:50;100104.03;;;7.63;100.00
59110;BME280;44895;47.438;18.978;2023-03-03T17:18:11;100118.13;;;7.29;100.00
59110;BME280;44895;47.438;18.978;2023-03-03T17:21:24;100123.25;;;6.89;100.00
59110;BME280;44895;47.438;18.978;2023-03-03T17:37:43;100123.38;;;6.36;100.00
59110;BME280;44895;47.438;18.978;2023-03-03T18:23:21;100136.63;;;5.14;100.00
59110;BME280;44895;47.438;18.978;2023-03-03T18:27:00;100136.97;;;4.96;100.00
59110;BME280;44895;47.438;18.978;2023-03-03T18:33:06;100141.97;;;4.82;100.00
59110;BME280;44895;47.438;18.978;2023-03-03T18:36:12;100141.25;;;4.64;100.00
59110;BME280;44895;47.438;18.978;2023-03-03T18:39:23;100144.06;;;4.52;100.00
59110;BME280;44895;47.438;18.978;2023-03-03T18:42:37;100137.44;;;4.38;100.00
59110;BME280;44895;47.438;18.978;2023-03-03T18:45:46;100142.13;;;4.48;100.00
59110;BME280;44895;47.438;18.978;2023-03-03T18:49:01;100139.22;;;4.77;100.00
59110;BME280;44895;47.438;18.978;2023-03-03T18:52:22;100135.41;;;4.72;100.00
59110;BME280;44895;47.438;18.978;2023-03-03T18:55:27;100146.09;;;4.67;100.00
59110;BME280;44895;47.438;18.978;2023-03-03T19:01:39;100141.75;;;4.61;100.00
59110;BME280;44895;47.438;18.978;2023-03-03T19:07:58;100145.81;;;4.64;100.00
59110;BME280;44895;47.438;18.978;2023-03-03T19:11:04;100147.34;;;4.60;100.00
59110;BME280;44895;47.438;18.978;2023-03-03T19:21:03;100152.22;;;5.12;100.00
59110;BME280;44895;47.438;18.978;2023-03-03T19:24:23;100149.56;;;5.17;100.00
59110;BME280;44895;47.438;18.978;2023-03-03T19:27:30;100160.00;;;5.41;100.00
59110;BME280;44895;47.438;18.978;2023-03-03T19:33:54;100151.38;;;5.44;100.00
59110;BME280;44895;47.438;18.978;2023-03-03T19:37:10;100154.84;;;5.39;100.00
59110;BME280;44895;47.438;18.978;2023-03-03T19:40:24;100150.78;;;5.37;100.00
59110;BME280;44895;47.438;18.978;2023-03-03T19:49:49;100152.47;;;5.43;100.00
59110;BME280;44895;47.438;18.978;2023-03-03T20:09:06;100156.66;;;5.61;100.00
59110;BME280;44895;47.438;18.978;2023-03-03T20:12:17;100159.41;;;5.71;100.00
59110;BME280;44895;47.438;18.978;2023-03-03T20:15:31;100160.91;;;5.57;100.00
59110;BME280;44895;47.438;18.978;2023-03-03T20:18:47;100152.81;;;5.57;100.00
59110;BME280;44895;47.438;18.978;2023-03-03T20:22:10;100162.13;;;5.71;100.00
59110;BME280;44895;47.438;18.978;2023-03-03T20:25:31;100169.28;;;5.61;100.00
59110;BME280;44895;47.438;18.978;2023-03-03T20:35:02;100164.22;;;5.64;100.00
59110;BME280;44895;47.438;18.978;2023-03-03T20:44:32;100168.31;;;5.72;100.00
59110;BME280;44895;47.438;18.978;2023-03-03T20:47:49;100168.97;;;5.52;100.00
59110;BME280;44895;47.438;18.978;2023-03-03T20:54:10;100164.44;;;5.58;100.00
59110;BME280;44895;47.438;18.978;2023-03-03T20:57:34;100155.91;;;5.76;100.00
59110;BME280;44895;47.438;18.978;2023-03-03T21:01:15;100167.91;;;5.53;100.00
59110;BME280;44895;47.438;18.978;2023-03-03T21:07:24;100165.97;;;5.48;100.00
59110;BME280;44895;47.438;18.978;2023-03-03T21:10:30;100166.88;;;5.59;100.00
59110;BME280;44895;47.438;18.978;2023-03-03T21:17:36;100161.41;;;5.49;100.00
59110;BME280;44895;47.438;18.978;2023-03-03T21:20:33;100169.56;;;5.27;100.00
59110;BME280;44895;47.438;18.978;2023-03-03T21:23:37;100162.09;;;5.34;100.00
59110;BME280;44895;47.438;18.978;2023-03-03T21:26:51;100165.84;;;5.33;100.00
59110;BME280;44895;47.438;18.978;2023-03-03T21:33:08;100162.22;;;5.17;100.00
59110;BME280;44895;47.438;18.978;2023-03-03T21:36:43;100166.38;;;5.02;100.00
59110;BME280;44895;47.438;18.978;2023-03-03T21:39:37;100169.72;;;5.15;100.00
59110;BME280;44895;47.438;18.978;2023-03-03T21:42:42;100167.53;;;5.12;100.00
59110;BME280;44895;47.438;18.978;2023-03-03T21:45:47;100160.63;;;4.94;100.00
59110;BME280;44895;47.438;18.978;2023-03-03T21:48:50;100177.50;;;4.84;100.00
59110;BME280;44895;47.438;18.978;2023-03-03T21:51:55;100174.19;;;5.04;100.00
59110;BME280;44895;47.438;18.978;2023-03-03T21:54:59;100176.41;;;5.07;100.00
59110;BME280;44895;47.438;18.978;2023-03-03T21:58:03;100170.09;;;4.96;100.00
59110;BME280;44895;47.438;18.978;2023-03-03T22:01:07;100175.63;;;4.84;100.00